createdAt,value
2023-01-10T00:00:35.303Z,5.75
2023-01-10T00:03:03.340Z,5.58
2023-01-10T00:05:30.068Z,5.65
2023-01-10T00:07:56.855Z,5.65
2023-01-10T00:10:23.396Z,5.66
2023-01-10T00:13:08.152Z,5.59
2023-01-10T00:15:36.385Z,5.64
2023-01-10T00:18:03.311Z,5.61
2023-01-10T00:20:30.300Z,5.65
2023-01-10T00:22:57.676Z,5.68
2023-01-10T00:25:24.827Z,5.69
2023-01-10T00:28:10.887Z,5.72
2023-01-10T00:30:39.784Z,5.70
2023-01-10T00:33:07.942Z,5.74
2023-01-10T00:35:35.140Z,5.74
2023-01-10T00:38:05.853Z,5.76
2023-01-10T00:40:33.517Z,5.80
2023-01-10T00:43:18.583Z,5.74
2023-01-10T00:45:48.337Z,5.83
2023-01-10T00:48:16.129Z,5.87
2023-01-10T00:50:43.398Z,5.90
2023-01-10T00:53:10.161Z,5.85
2023-01-10T00:55:37.113Z,5.85
2023-01-10T00:58:04.007Z,5.90
2023-01-10T01:00:30.618Z,5.91
2023-01-10T01:02:57.383Z,5.92
2023-01-10T01:05:23.979Z,5.88
2023-01-10T01:07:52.116Z,6.02
2023-01-10T01:10:28.080Z,6.05
2023-01-10T01:13:00.486Z,6.06
2023-01-10T01:15:27.828Z,6.01
2023-01-10T01:17:55.202Z,5.91
2023-01-10T01:20:21.934Z,5.94
2023-01-10T01:22:48.841Z,5.97
2023-01-10T01:25:15.516Z,5.93
2023-01-10T01:27:42.230Z,6.02
2023-01-10T01:30:10.020Z,5.94
2023-01-10T01:32:36.861Z,5.98
2023-01-10T01:35:04.201Z,5.99
2023-01-10T01:37:30.747Z,6.02
2023-01-10T01:39:57.487Z,6.10
2023-01-10T01:42:29.943Z,6.20
2023-01-10T01:45:08.545Z,6.20
2023-01-10T01:47:50.055Z,6.08
2023-01-10T01:50:20.979Z,6.00
2023-01-10T01:52:51.263Z,6.02
2023-01-10T01:55:18.064Z,5.96
2023-01-10T01:57:46.777Z,5.94
2023-01-10T02:00:14.855Z,5.80
2023-01-10T02:03:01.875Z,5.74
2023-01-10T02:05:30.952Z,5.78
2023-01-10T02:07:59.172Z,5.70
2023-01-10T02:10:52.692Z,5.77
2023-01-10T02:13:23.372Z,5.83
2023-01-10T02:15:50.719Z,5.89
2023-01-10T02:18:19.035Z,5.86
2023-01-10T02:21:18.352Z,5.80
2023-01-10T02:23:47.730Z,5.92
2023-01-10T02:26:45.444Z,6.03
2023-01-10T02:29:39.663Z,6.13
2023-01-10T02:32:45.506Z,6.19
2023-01-10T02:35:35.585Z,6.31
2023-01-10T02:38:27.263Z,6.33
2023-01-10T02:41:15.645Z,6.47
2023-01-10T02:43:54.030Z,6.47
2023-01-10T02:46:25.498Z,6.56
2023-01-10T02:48:54.133Z,6.59
2023-01-10T02:51:22.790Z,6.62
2023-01-10T02:53:57.438Z,6.57
2023-01-10T02:56:35.867Z,6.60
2023-01-10T02:59:11.483Z,6.60
2023-01-10T03:02:08.371Z,6.57
2023-01-10T03:04:45.796Z,6.53
2023-01-10T03:07:36.884Z,6.62
2023-01-10T03:10:18.343Z,6.44
2023-01-10T03:12:57.170Z,6.26
2023-01-10T03:15:27.152Z,6.25
2023-01-10T03:17:58.545Z,6.30
2023-01-10T03:20:25.588Z,6.28
2023-01-10T03:22:55.725Z,6.27
2023-01-10T03:25:28.354Z,6.30
2023-01-10T03:28:04.996Z,6.49
2023-01-10T03:30:50.778Z,6.61
2023-01-10T03:33:23.585Z,6.74
2023-01-10T03:36:19.042Z,6.70
2023-01-10T03:38:53.327Z,6.43
2023-01-10T03:41:30.032Z,6.31
2023-01-10T03:44:24.724Z,6.21
2023-01-10T03:47:30.548Z,6.10
2023-01-10T03:50:02.694Z,6.02
2023-01-10T03:52:31.697Z,5.94
2023-01-10T03:54:59.151Z,5.77
2023-01-10T03:57:26.040Z,5.89
2023-01-10T03:59:59.195Z,5.91
2023-01-10T04:02:28.083Z,5.99
2023-01-10T04:04:54.650Z,5.92
2023-01-10T04:07:21.777Z,5.93
2023-01-10T04:09:48.525Z,5.98
2023-01-10T04:12:15.792Z,6.11
2023-01-10T04:14:42.385Z,6.07
2023-01-10T04:17:08.976Z,6.08
2023-01-10T04:19:35.583Z,6.12
2023-01-10T04:22:02.161Z,6.24
2023-01-10T04:24:28.735Z,6.18
2023-01-10T04:26:55.304Z,6.24
2023-01-10T04:29:21.902Z,6.31
2023-01-10T04:31:48.557Z,6.35
2023-01-10T04:34:15.197Z,6.37
2023-01-10T04:36:42.383Z,6.44
2023-01-10T04:39:09.231Z,6.51
2023-01-10T04:41:35.835Z,6.56
2023-01-10T04:44:02.444Z,6.69
2023-01-10T04:46:29.068Z,6.83
2023-01-10T04:48:55.993Z,6.93
2023-01-10T04:51:22.627Z,6.97
2023-01-10T04:53:49.215Z,7.04
2023-01-10T04:56:18.549Z,7.01
2023-01-10T04:58:45.581Z,7.06
2023-01-10T05:01:17.912Z,7.13
2023-01-10T05:03:44.739Z,7.18
2023-01-10T05:06:11.294Z,7.28
2023-01-10T05:08:37.862Z,7.26
2023-01-10T05:11:04.680Z,7.30
2023-01-10T05:13:31.453Z,7.42
2023-01-10T05:15:58.797Z,7.59
2023-01-10T05:18:26.219Z,7.61
2023-01-10T05:20:52.959Z,7.56
2023-01-10T05:23:19.552Z,7.58
2023-01-10T05:25:46.190Z,7.57
2023-01-10T05:28:12.754Z,7.50
2023-01-10T05:30:39.414Z,7.57
2023-01-10T05:33:06.032Z,7.65
2023-01-10T05:35:32.735Z,7.77
2023-01-10T05:37:59.360Z,7.82
2023-01-10T05:40:25.997Z,7.84
2023-01-10T05:42:52.616Z,7.91
2023-01-10T05:45:19.383Z,7.92
2023-01-10T05:47:45.978Z,7.94
2023-01-10T05:50:12.559Z,7.92
2023-01-10T05:52:39.165Z,7.92
2023-01-10T05:55:06.380Z,7.91
2023-01-10T05:57:32.964Z,7.99
2023-01-10T05:59:59.569Z,8.01
2023-01-10T06:02:26.700Z,7.94
2023-01-10T06:04:55.484Z,7.99
2023-01-10T06:07:23.622Z,7.96
2023-01-10T06:09:51.539Z,7.98
2023-01-10T06:12:21.461Z,7.98
2023-01-10T06:14:48.064Z,8.03
2023-01-10T06:17:14.723Z,7.95
2023-01-10T06:19:41.351Z,7.97
2023-01-10T06:22:08.037Z,8.04
2023-01-10T06:24:35.772Z,8.00
2023-01-10T06:27:02.441Z,7.99
2023-01-10T06:29:29.102Z,8.04
2023-01-10T06:31:55.707Z,8.12
2023-01-10T06:34:22.328Z,8.11
2023-01-10T06:36:48.995Z,8.14
2023-01-10T06:39:15.679Z,8.16
2023-01-10T06:41:42.327Z,8.23
2023-01-10T06:44:09.072Z,8.20
2023-01-10T06:46:35.752Z,8.25
2023-01-10T06:49:02.433Z,8.28
2023-01-10T06:51:29.118Z,8.31
2023-01-10T06:53:55.690Z,8.36
2023-01-10T06:56:22.311Z,8.36
2023-01-10T06:58:50.248Z,8.41
2023-01-10T07:01:19.859Z,8.48
2023-01-10T07:03:46.695Z,8.48
2023-01-10T07:06:14.301Z,8.44
2023-01-10T07:08:43.732Z,8.41
2023-01-10T07:11:10.619Z,8.46
2023-01-10T07:13:37.521Z,8.42
2023-01-10T07:16:12.744Z,8.41
2023-01-10T07:18:41.303Z,8.42
2023-01-10T07:21:08.921Z,8.41
2023-01-10T07:23:36.658Z,8.47
2023-01-10T07:26:08.765Z,8.46
2023-01-10T07:28:35.745Z,8.43
2023-01-10T07:31:05.474Z,8.41
2023-01-10T07:33:32.392Z,8.46
2023-01-10T07:36:00.554Z,8.45
2023-01-10T07:38:27.222Z,8.42
2023-01-10T07:40:53.945Z,8.49
2023-01-10T07:43:20.630Z,8.40
2023-01-10T07:45:47.298Z,8.52
2023-01-10T07:48:14.323Z,8.50
2023-01-10T07:50:40.948Z,8.54
2023-01-10T07:53:08.685Z,8.54
2023-01-10T07:55:38.993Z,8.56
2023-01-10T07:58:08.034Z,8.59
2023-01-10T08:00:35.573Z,8.61
2023-01-10T08:03:02.398Z,8.64
2023-01-10T08:05:29.313Z,8.60
2023-01-10T08:07:59.998Z,8.59
2023-01-10T08:10:27.118Z,8.70
2023-01-10T08:12:53.753Z,8.69
2023-01-10T08:15:20.553Z,8.68
2023-01-10T08:17:47.214Z,8.66
2023-01-10T08:20:13.932Z,8.73
2023-01-10T08:22:40.480Z,8.77
2023-01-10T08:25:07.332Z,8.83
2023-01-10T08:27:34.025Z,8.85
2023-01-10T08:30:00.683Z,8.79
2023-01-10T08:32:27.309Z,8.79
2023-01-10T08:34:53.956Z,8.78
2023-01-10T08:37:20.607Z,8.76
2023-01-10T08:39:47.217Z,8.84
2023-01-10T08:42:14.261Z,8.83
2023-01-10T08:44:40.925Z,8.80
2023-01-10T08:47:07.612Z,8.86
2023-01-10T08:49:34.358Z,8.85
2023-01-10T08:52:02.394Z,8.84
2023-01-10T08:54:29.009Z,8.82
2023-01-10T08:56:55.605Z,8.84
2023-01-10T08:59:22.199Z,8.77
2023-01-10T09:01:48.812Z,8.84
2023-01-10T09:04:15.486Z,8.81
2023-01-10T09:06:42.067Z,8.78
2023-01-10T09:09:09.830Z,8.77
2023-01-10T09:11:36.594Z,8.78
2023-01-10T09:14:03.196Z,8.76
2023-01-10T09:16:29.731Z,8.69
2023-01-10T09:18:56.413Z,8.67
2023-01-10T09:21:23.033Z,8.64
2023-01-10T09:23:49.696Z,8.70
2023-01-10T09:26:16.324Z,8.69
2023-01-10T09:28:42.957Z,8.73
2023-01-10T09:31:11.404Z,8.65
2023-01-10T09:33:46.840Z,8.64
2023-01-10T09:36:15.686Z,8.66
2023-01-10T09:38:42.801Z,8.62
2023-01-10T09:41:15.224Z,8.64
2023-01-10T09:43:57.921Z,8.55
2023-01-10T09:46:44.724Z,8.56
2023-01-10T09:49:20.579Z,8.55
2023-01-10T09:51:50.855Z,8.55
2023-01-10T09:54:32.030Z,8.57
2023-01-10T09:57:00.780Z,8.56
2023-01-10T09:59:36.943Z,8.56
2023-01-10T10:02:33.281Z,8.61
2023-01-10T10:05:08.988Z,8.58
2023-01-10T10:07:35.956Z,8.52
2023-01-10T10:10:04.338Z,8.48
2023-01-10T10:12:41.717Z,8.52
2023-01-10T10:15:14.091Z,8.48
2023-01-10T10:18:05.875Z,8.49
2023-01-10T10:21:07.148Z,8.48
2023-01-10T10:23:44.840Z,8.51
2023-01-10T10:26:34.761Z,8.56
2023-01-10T10:29:19.456Z,8.60
2023-01-10T10:32:15.481Z,8.56
2023-01-10T10:34:48.339Z,8.55
2023-01-10T10:37:33.707Z,8.62
2023-01-10T10:40:16.506Z,8.60
2023-01-10T10:42:49.422Z,8.59
2023-01-10T10:45:16.010Z,8.58
2023-01-10T10:47:50.087Z,8.61
2023-01-10T10:50:25.642Z,8.63
2023-01-10T10:52:52.300Z,8.68
2023-01-10T10:55:27.971Z,8.70
2023-01-10T10:58:00.159Z,8.74
2023-01-10T11:00:29.063Z,8.81
2023-01-10T11:03:29.903Z,8.87
2023-01-10T11:05:57.481Z,8.81
2023-01-10T11:08:24.390Z,8.87
2023-01-10T11:10:56.427Z,8.90
2023-01-10T11:13:46.047Z,8.93
2023-01-10T11:16:36.725Z,8.89
2023-01-10T11:19:23.170Z,8.88
2023-01-10T11:21:55.416Z,8.90
2023-01-10T11:24:27.838Z,8.89
2023-01-10T11:26:56.575Z,8.88
2023-01-10T11:29:32.308Z,8.91
2023-01-10T11:32:07.839Z,8.92
2023-01-10T11:34:36.620Z,8.89
2023-01-10T11:37:18.913Z,8.80
2023-01-10T11:39:45.779Z,8.83
2023-01-10T11:42:29.790Z,8.88
2023-01-10T11:45:21.958Z,8.84
2023-01-10T11:47:56.447Z,8.81
2023-01-10T11:50:27.476Z,8.83
2023-01-10T11:52:55.517Z,8.80
2023-01-10T11:55:34.318Z,8.89
2023-01-10T11:58:08.991Z,8.91
2023-01-10T12:00:41.817Z,8.91
2023-01-10T12:03:23.817Z,8.92
2023-01-10T12:05:53.764Z,8.99
2023-01-10T12:08:32.908Z,9.01
2023-01-10T12:11:24.987Z,8.96
2023-01-10T12:13:54.588Z,8.91
2023-01-10T12:16:32.214Z,8.96
2023-01-10T12:19:04.653Z,9.01
2023-01-10T12:21:42.078Z,9.02
2023-01-10T12:24:35.941Z,8.97
2023-01-10T12:27:05.047Z,9.05
2023-01-10T12:30:00.829Z,9.08
2023-01-10T12:32:34.140Z,9.04
2023-01-10T12:35:10.650Z,9.12
2023-01-10T12:37:47.089Z,9.02
2023-01-10T12:40:34.098Z,9.08
2023-01-10T12:43:31.809Z,9.00
2023-01-10T12:46:21.125Z,8.94
2023-01-10T12:49:02.365Z,8.91
2023-01-10T12:51:30.772Z,9.01
2023-01-10T12:54:06.648Z,8.96
2023-01-10T12:56:33.368Z,9.06
2023-01-10T12:59:05.395Z,9.10
2023-01-10T13:01:40.403Z,9.14
2023-01-10T13:04:12.113Z,9.16
2023-01-10T13:06:42.753Z,9.15
2023-01-10T13:09:24.218Z,9.16
2023-01-10T13:11:56.603Z,9.15
2023-01-10T13:14:29.232Z,9.16
2023-01-10T13:17:08.331Z,9.13
2023-01-10T13:19:34.970Z,9.21
2023-01-10T13:22:21.689Z,9.14
2023-01-10T13:24:59.933Z,9.16
2023-01-10T13:27:32.238Z,9.04
2023-01-10T13:29:59.394Z,9.05
2023-01-10T13:32:33.621Z,9.14
2023-01-10T13:35:18.287Z,9.12
2023-01-10T13:37:52.360Z,9.13
2023-01-10T13:40:28.069Z,9.16
2023-01-10T13:43:34.213Z,9.21
2023-01-10T13:46:23.873Z,9.29
2023-01-10T13:48:50.454Z,9.30
2023-01-10T13:51:20.839Z,9.35
2023-01-10T13:53:52.840Z,9.44
2023-01-10T13:56:35.970Z,9.44
2023-01-10T13:59:23.327Z,9.45
2023-01-10T14:02:11.488Z,9.46
2023-01-10T14:04:46.214Z,9.50
2023-01-10T14:07:30.475Z,9.54
2023-01-10T14:10:19.572Z,9.56
2023-01-10T14:12:57.271Z,9.61
2023-01-10T14:15:36.985Z,9.56
2023-01-10T14:18:08.071Z,9.55
2023-01-10T14:20:36.391Z,9.60
2023-01-10T14:23:05.449Z,9.58
2023-01-10T14:25:34.765Z,9.56
2023-01-10T14:28:02.408Z,9.55
2023-01-10T14:30:39.366Z,9.58
2023-01-10T14:33:14.461Z,9.60
2023-01-10T14:35:46.755Z,9.63
2023-01-10T14:38:23.716Z,9.57
2023-01-10T14:41:00.574Z,9.56
2023-01-10T14:43:33.171Z,9.52
2023-01-10T14:46:15.461Z,9.51
2023-01-10T14:48:49.733Z,9.55
2023-01-10T14:51:26.901Z,9.53
2023-01-10T14:53:59.902Z,9.48
2023-01-10T14:56:30.334Z,9.50
2023-01-10T14:58:56.967Z,9.51
2023-01-10T15:01:29.974Z,9.48
2023-01-10T15:03:57.449Z,9.47
2023-01-10T15:06:26.002Z,9.50
2023-01-10T15:08:58.191Z,9.50
2023-01-10T15:11:27.417Z,9.57
2023-01-10T15:14:00.133Z,9.52
2023-01-10T15:16:28.753Z,9.34
2023-01-10T15:18:58.192Z,9.46
2023-01-10T15:21:25.943Z,9.43
2023-01-10T15:23:52.637Z,9.35
2023-01-10T15:26:25.191Z,9.35
2023-01-10T15:29:18.475Z,9.34
2023-01-10T15:31:45.334Z,9.31
2023-01-10T15:34:30.445Z,9.25
2023-01-10T15:36:59.941Z,9.26
2023-01-10T15:39:47.129Z,9.29
2023-01-10T15:42:14.150Z,9.34
2023-01-10T15:44:44.934Z,9.30
2023-01-10T15:47:49.577Z,9.36
2023-01-10T15:50:21.459Z,9.31
2023-01-10T15:52:53.574Z,9.28
2023-01-10T15:55:43.472Z,9.36
2023-01-10T15:58:20.062Z,9.39
2023-01-10T16:00:48.439Z,9.33
2023-01-10T16:03:45.375Z,9.36
2023-01-10T16:06:42.656Z,9.38
2023-01-10T16:09:19.601Z,9.37
2023-01-10T16:12:10.356Z,9.14
2023-01-10T16:14:37.981Z,9.33
2023-01-10T16:17:05.888Z,9.30
2023-01-10T16:19:32.992Z,9.31
2023-01-10T16:22:00.383Z,9.30
2023-01-10T16:24:28.209Z,9.26
2023-01-10T16:26:56.713Z,9.28
2023-01-10T16:29:23.760Z,9.28
2023-01-10T16:31:52.337Z,9.33
2023-01-10T16:34:19.865Z,9.36
2023-01-10T16:36:46.576Z,9.27
2023-01-10T16:39:16.307Z,9.26
2023-01-10T16:42:03.228Z,9.20
2023-01-10T16:44:30.303Z,9.16
2023-01-10T16:46:57.352Z,9.16
2023-01-10T16:49:24.272Z,9.17
2023-01-10T16:51:51.977Z,9.20
2023-01-10T16:54:21.880Z,9.18
2023-01-10T16:56:50.292Z,9.24
2023-01-10T16:59:18.227Z,9.15
2023-01-10T17:01:56.869Z,9.15
2023-01-10T17:04:30.753Z,9.07
2023-01-10T17:06:57.511Z,9.01
2023-01-10T17:09:31.337Z,8.97
2023-01-10T17:12:06.090Z,8.97
2023-01-10T17:14:35.610Z,9.00
2023-01-10T17:17:05.923Z,8.94
2023-01-10T17:19:32.587Z,8.86
2023-01-10T17:22:00.222Z,8.80
2023-01-10T17:24:27.091Z,8.80
2023-01-10T17:26:53.763Z,8.78
2023-01-10T17:29:22.463Z,8.81
2023-01-10T17:31:49.863Z,8.80
2023-01-10T17:34:16.497Z,8.72
2023-01-10T17:36:43.153Z,8.69
2023-01-10T17:39:09.768Z,8.67
2023-01-10T17:41:36.494Z,8.67
2023-01-10T17:44:03.186Z,8.56
2023-01-10T17:46:29.978Z,8.53
2023-01-10T17:48:56.584Z,8.57
2023-01-10T17:51:24.786Z,8.61
2023-01-10T17:53:54.175Z,8.61
2023-01-10T17:56:20.847Z,8.54
2023-01-10T17:58:47.578Z,8.58
2023-01-10T18:01:23.701Z,8.60
2023-01-10T18:03:51.901Z,8.57
2023-01-10T18:06:24.101Z,8.56
2023-01-10T18:08:51.459Z,8.59
2023-01-10T18:11:18.141Z,8.50
2023-01-10T18:13:44.801Z,8.42
2023-01-10T18:16:11.442Z,8.39
2023-01-10T18:18:38.094Z,8.39
2023-01-10T18:21:07.345Z,8.31
2023-01-10T18:23:34.069Z,8.32
2023-01-10T18:26:02.376Z,8.23
2023-01-10T18:28:41.033Z,8.14
2023-01-10T18:31:15.889Z,8.13
2023-01-10T18:33:43.224Z,8.10
2023-01-10T18:36:14.857Z,8.03
2023-01-10T18:38:41.588Z,8.12
2023-01-10T18:41:08.442Z,8.07
2023-01-10T18:43:35.443Z,7.96
2023-01-10T18:46:08.229Z,8.07
2023-01-10T18:48:35.051Z,8.08
2023-01-10T18:51:03.752Z,8.12
2023-01-10T18:53:31.246Z,8.14
2023-01-10T18:56:00.244Z,8.00
2023-01-10T18:58:30.952Z,8.12
2023-01-10T19:00:57.617Z,8.21
2023-01-10T19:03:24.374Z,8.28
2023-01-10T19:05:51.089Z,8.28
2023-01-10T19:08:17.775Z,8.27
2023-01-10T19:11:11.458Z,8.23
2023-01-10T19:13:32.152Z,8.15
2023-01-10T19:16:13.558Z,8.26
2023-01-10T19:18:40.604Z,8.20
2023-01-10T19:21:13.363Z,8.22
2023-01-10T19:23:39.950Z,8.28
2023-01-10T19:26:06.528Z,8.30
2023-01-10T19:28:33.336Z,8.32
2023-01-10T19:31:04.578Z,8.41
2023-01-10T19:33:33.010Z,8.38
2023-01-10T19:35:59.760Z,8.38
2023-01-10T19:38:26.375Z,8.39
2023-01-10T19:40:53.384Z,8.35
2023-01-10T19:43:22.198Z,8.37
2023-01-10T19:45:48.737Z,8.47
2023-01-10T19:48:15.587Z,8.24
2023-01-10T19:50:42.304Z,8.36
2023-01-10T19:53:08.934Z,8.46
2023-01-10T19:55:35.851Z,8.49
2023-01-10T19:58:02.648Z,8.53
2023-01-10T20:00:29.492Z,8.51
2023-01-10T20:02:57.596Z,8.48
2023-01-10T20:05:24.844Z,8.46
2023-01-10T20:07:52.492Z,8.36
2023-01-10T20:10:19.366Z,8.40
2023-01-10T20:12:46.058Z,8.44
2023-01-10T20:15:12.670Z,8.47
2023-01-10T20:17:40.629Z,8.46
2023-01-10T20:20:07.739Z,8.47
2023-01-10T20:22:34.308Z,8.56
2023-01-10T20:25:01.081Z,8.50
2023-01-10T20:27:28.843Z,8.39
2023-01-10T20:29:55.653Z,8.42
2023-01-10T20:32:22.969Z,8.37
2023-01-10T20:34:51.022Z,8.30
2023-01-10T20:37:17.820Z,8.24
2023-01-10T20:39:44.488Z,8.26
2023-01-10T20:42:11.106Z,8.27
2023-01-10T20:44:38.898Z,8.30
2023-01-10T20:47:05.904Z,8.34
2023-01-10T20:49:32.470Z,8.19
2023-01-10T20:51:59.061Z,8.09
2023-01-10T20:54:25.738Z,8.08
2023-01-10T20:56:52.348Z,8.13
2023-01-10T20:59:18.961Z,8.04
2023-01-10T21:01:45.607Z,7.94
2023-01-10T21:04:12.230Z,7.97
2023-01-10T21:06:39.129Z,7.90
2023-01-10T21:09:06.083Z,7.90
2023-01-10T21:11:38.865Z,7.83
2023-01-10T21:14:14.289Z,7.81
2023-01-10T21:16:40.919Z,7.72
2023-01-10T21:19:10.453Z,7.77
2023-01-10T21:21:38.297Z,7.57
2023-01-10T21:24:05.100Z,7.44
2023-01-10T21:26:31.679Z,7.41
2023-01-10T21:28:58.341Z,7.38
2023-01-10T21:31:25.007Z,7.42
2023-01-10T21:33:51.788Z,7.34
2023-01-10T21:36:18.488Z,7.44
2023-01-10T21:38:45.402Z,7.38
2023-01-10T21:41:14.524Z,7.48
2023-01-10T21:43:45.363Z,7.47
2023-01-10T21:46:12.993Z,7.43
2023-01-10T21:48:39.785Z,7.42
2023-01-10T21:51:06.476Z,7.36
2023-01-10T21:53:33.116Z,7.31
2023-01-10T21:56:00.128Z,7.46
2023-01-10T21:58:27.045Z,7.45
2023-01-10T22:00:58.941Z,7.52
2023-01-10T22:03:26.158Z,7.50
2023-01-10T22:05:53.519Z,7.53
2023-01-10T22:08:20.072Z,7.56
2023-01-10T22:10:46.639Z,7.62
2023-01-10T22:13:13.159Z,7.72
2023-01-10T22:15:41.196Z,7.79
2023-01-10T22:18:08.551Z,7.79
2023-01-10T22:20:35.356Z,7.87
2023-01-10T22:23:01.974Z,7.92
2023-01-10T22:25:28.761Z,7.79
2023-01-10T22:27:55.366Z,7.78
2023-01-10T22:30:22.034Z,7.81
2023-01-10T22:32:48.597Z,7.80
2023-01-10T22:35:15.224Z,7.88
2023-01-10T22:37:41.859Z,7.85
2023-01-10T22:40:09.192Z,7.89
2023-01-10T22:42:35.839Z,7.84
2023-01-10T22:45:02.416Z,7.84
2023-01-10T22:47:29.042Z,7.92
2023-01-10T22:49:55.599Z,7.91
2023-01-10T22:52:22.182Z,7.91
2023-01-10T22:54:48.778Z,7.86
2023-01-10T22:57:15.332Z,7.82
2023-01-10T22:59:41.862Z,7.88
2023-01-10T23:02:08.453Z,7.84
2023-01-10T23:04:35.054Z,7.90
2023-01-10T23:07:01.842Z,7.82
2023-01-10T23:09:28.487Z,7.83
2023-01-10T23:11:55.073Z,7.88
2023-01-10T23:14:21.645Z,7.96
2023-01-10T23:16:48.265Z,7.91
2023-01-10T23:19:15.062Z,7.95
2023-01-10T23:21:42.055Z,7.92
2023-01-10T23:24:08.813Z,7.89
2023-01-10T23:26:35.385Z,7.92
2023-01-10T23:29:02.062Z,7.88
2023-01-10T23:31:30.029Z,7.90
2023-01-10T23:33:56.851Z,7.97
2023-01-10T23:36:23.954Z,7.82
2023-01-10T23:38:51.297Z,7.92
2023-01-10T23:41:21.116Z,7.73
2023-01-10T23:43:51.672Z,7.77
2023-01-10T23:46:18.541Z,7.74
2023-01-10T23:48:46.538Z,7.77
2023-01-10T23:51:13.579Z,7.69
2023-01-10T23:53:40.495Z,7.52
2023-01-10T23:56:12.382Z,7.57
2023-01-10T23:58:39.375Z,7.57
